Vallensbaek, Denmark
Current Conditions -  °F | °C
As of 3:50 AM on Tuesday 21 Oct 2014 (Local Time) from EKRK Reporting Station
Overcast Overcast  
Wind Chill: 50°   Ceiling: 600
Heat Index: 50°   Visibility: 6mi
Dew Point: 50°   Wind: 5mph
Humidity: 100%   Direction: 250°WSW
Pressure: 29.68"   Gusts: NA
Location:  55.63°N, 12.37°E
Report Text: EKRK 210150Z AUTO 25004KT 220V290 9999NDV BKN006/// OVC008/// 10/10 Q1005
Loading
Personal Weather Stations






























Interactive Weather Map
Tropical Storm Tracking
New forecast layout! Learn more

10-Day Weather Forecast

Advertisements
Track Severe Weather on mobile